createdAt,value
2022-09-23T00:01:04.215Z,98311.56
2022-09-23T00:05:06.999Z,98313.41
2022-09-23T00:09:09.041Z,98309.22
2022-09-23T00:13:11.022Z,98304.28
2022-09-23T00:17:13.494Z,98306.81
2022-09-23T00:21:15.650Z,98303.44
2022-09-23T00:25:17.767Z,98298.94
2022-09-23T00:29:19.772Z,98293.72
2022-09-23T00:33:21.755Z,98306.84
2022-09-23T00:37:23.866Z,98292.84
2022-09-23T00:41:26.823Z,98290.97
2022-09-23T00:45:29.410Z,98293.81
2022-09-23T00:49:31.456Z,98283.75
2022-09-23T00:53:34.429Z,98287.13
2022-09-23T00:57:38.603Z,98283.75
2022-09-23T01:01:40.881Z,98275.31
2022-09-23T01:05:43.013Z,98269.16
2022-09-23T01:09:48.621Z,98266.81
2022-09-23T01:13:53.604Z,98268.75
2022-09-23T01:18:37.308Z,98259.91
2022-09-23T01:23:08.132Z,98253.81
2022-09-23T01:27:41.002Z,98249.41
2022-09-23T01:32:03.148Z,98256.16
2022-09-23T01:36:31.563Z,98257.94
2022-09-23T01:40:42.637Z,98255.91
2022-09-23T01:45:00.276Z,98250.19
2022-09-23T01:49:15.098Z,98246.69
2022-09-23T01:53:26.882Z,98246.53
2022-09-23T01:57:38.211Z,98239.47
2022-09-23T02:01:47.964Z,98244.81
2022-09-23T02:06:16.926Z,98243.16
2022-09-23T02:10:44.545Z,98241.84
2022-09-23T02:15:11.318Z,98247.25
2022-09-23T02:19:28.022Z,98237.69
2022-09-23T02:23:32.792Z,98229.78
2022-09-23T02:27:37.527Z,98229.56
2022-09-23T02:31:56.494Z,98230.28
2022-09-23T02:36:13.682Z,98224.22
2022-09-23T02:40:31.349Z,98226.03
2022-09-23T02:44:33.732Z,98224.53
2022-09-23T02:48:47.455Z,98222.09
2022-09-23T02:52:49.648Z,98217.06
2022-09-23T02:56:53.254Z,98208.53
2022-09-23T03:01:11.009Z,98203.22
2022-09-23T03:05:24.752Z,98202.34
2022-09-23T03:09:33.881Z,98197.16
2022-09-23T03:14:06.912Z,98196.13
2022-09-23T03:18:18.849Z,98202.03
2022-09-23T03:22:32.093Z,98196.78
2022-09-23T03:26:37.690Z,98196.94
2022-09-23T03:30:43.492Z,98193.88
2022-09-23T03:34:49.952Z,98194.72
2022-09-23T03:38:59.022Z,98186.75
2022-09-23T03:43:04.418Z,98185.66
2022-09-23T03:47:06.541Z,98179.38
2022-09-23T03:51:21.086Z,98173.06
2022-09-23T03:55:23.096Z,98169.59
2022-09-23T03:59:26.595Z,98172.09
2022-09-23T04:03:29.214Z,98174.53
2022-09-23T04:07:31.254Z,98161.72
2022-09-23T04:11:33.340Z,98166.22
2022-09-23T04:15:35.314Z,98154.38
2022-09-23T04:19:37.686Z,98154.31
2022-09-23T04:23:39.808Z,98158.47
2022-09-23T04:27:41.826Z,98160.00
2022-09-23T04:31:45.751Z,98161.47
2022-09-23T04:35:52.020Z,98157.81
2022-09-23T04:39:54.296Z,98155.16
2022-09-23T04:43:57.485Z,98153.47
2022-09-23T04:47:59.593Z,98153.38
2022-09-23T04:52:02.745Z,98142.09
2022-09-23T04:56:07.344Z,98141.28
2022-09-23T05:00:12.061Z,98135.34
2022-09-23T05:04:14.297Z,98145.59
2022-09-23T05:08:16.335Z,98149.91
2022-09-23T05:12:18.324Z,98153.41
2022-09-23T05:16:23.127Z,98149.16
2022-09-23T05:20:25.616Z,98159.75
2022-09-23T05:24:27.836Z,98151.31
2022-09-23T05:28:32.886Z,98155.50
2022-09-23T05:32:34.877Z,98153.69
2022-09-23T05:36:39.058Z,98152.34
2022-09-23T05:40:41.428Z,98154.38
2022-09-23T05:44:43.785Z,98148.69
2022-09-23T05:48:47.213Z,98154.22
2022-09-23T05:52:49.249Z,98153.69
2022-09-23T05:56:51.242Z,98156.03
2022-09-23T06:00:56.694Z,98155.47
2022-09-23T06:04:58.696Z,98154.00
2022-09-23T06:09:01.395Z,98156.69
2022-09-23T06:13:03.540Z,98152.78
2022-09-23T06:17:05.731Z,98155.78
2022-09-23T06:21:09.102Z,98148.41
2022-09-23T06:25:12.207Z,98142.06
2022-09-23T06:29:14.422Z,98147.75
2022-09-23T06:33:18.321Z,98139.47
2022-09-23T06:37:23.290Z,98138.00
2022-09-23T06:41:25.291Z,98133.78
2022-09-23T06:45:30.729Z,98127.53
2022-09-23T06:49:33.861Z,98133.38
2022-09-23T06:53:37.027Z,98129.63
2022-09-23T06:57:39.597Z,98126.91
2022-09-23T07:01:41.840Z,98136.38
2022-09-23T07:05:44.018Z,98124.16
2022-09-23T07:09:46.119Z,98127.91
2022-09-23T07:13:48.366Z,98122.97
2022-09-23T07:17:50.458Z,98126.94
2022-09-23T07:21:52.423Z,98128.31
2022-09-23T07:25:58.684Z,98124.53
2022-09-23T07:30:00.773Z,98125.25
2022-09-23T07:34:02.878Z,98120.69
2022-09-23T07:38:04.879Z,98126.69
2022-09-23T07:42:07.008Z,98124.63
2022-09-23T07:46:13.059Z,98129.06
2022-09-23T07:50:15.471Z,98120.13
2022-09-23T07:54:18.314Z,98119.06
2022-09-23T07:58:20.600Z,98122.41
2022-09-23T08:02:22.837Z,98127.25
2022-09-23T08:06:25.385Z,98132.31
2022-09-23T08:10:27.491Z,98125.16
2022-09-23T08:14:29.526Z,98123.03
2022-09-23T08:18:31.770Z,98121.06
2022-09-23T08:22:33.818Z,98124.84
2022-09-23T08:26:35.818Z,98132.19
2022-09-23T08:30:39.314Z,98130.66
2022-09-23T08:34:41.550Z,98127.25
2022-09-23T08:38:43.630Z,98121.13
2022-09-23T08:42:46.707Z,98115.13
2022-09-23T08:47:06.777Z,98117.69
2022-09-23T08:51:14.586Z,98113.38
2022-09-23T08:55:17.557Z,98112.22
2022-09-23T08:59:28.785Z,98107.50
2022-09-23T09:03:55.043Z,98099.44
2022-09-23T09:08:00.210Z,98098.28
2022-09-23T09:12:17.147Z,98101.75
2022-09-23T09:17:00.309Z,98103.38
2022-09-23T09:21:11.689Z,98105.44
2022-09-23T09:25:37.958Z,98112.66
2022-09-23T09:29:44.609Z,98112.84
2022-09-23T09:34:11.928Z,98102.63
2022-09-23T09:38:14.941Z,98093.25
2022-09-23T09:42:24.395Z,98092.47
2022-09-23T09:46:52.758Z,98086.56
2022-09-23T09:50:55.991Z,98079.41
2022-09-23T09:55:25.942Z,98073.03
2022-09-23T09:59:28.872Z,98071.91
2022-09-23T10:03:39.227Z,98064.22
2022-09-23T10:07:41.266Z,98073.38
2022-09-23T10:12:02.890Z,98069.47
2022-09-23T10:16:05.294Z,98069.72
2022-09-23T10:20:09.046Z,98060.97
2022-09-23T10:24:23.026Z,98067.88
2022-09-23T10:28:48.433Z,98065.59
2022-09-23T10:32:53.061Z,98062.59
2022-09-23T10:37:36.404Z,98062.03
2022-09-23T10:42:12.159Z,98060.50
2022-09-23T10:46:41.371Z,98054.25
2022-09-23T10:50:55.462Z,98049.75
2022-09-23T10:55:19.305Z,98050.00
2022-09-23T10:59:36.551Z,98033.41
2022-09-23T11:03:54.296Z,98032.66
2022-09-23T11:08:19.814Z,98032.78
2022-09-23T11:12:33.986Z,98021.19
2022-09-23T11:16:42.095Z,98020.03
2022-09-23T11:21:07.169Z,98018.19
2022-09-23T11:25:18.463Z,98025.09
2022-09-23T11:29:42.864Z,98029.00
2022-09-23T11:33:52.750Z,98019.25
2022-09-23T11:38:07.533Z,98014.41
2022-09-23T11:42:20.001Z,98009.50
2022-09-23T11:46:44.198Z,97995.53
2022-09-23T11:51:14.592Z,97999.34
2022-09-23T11:55:22.777Z,97989.97
2022-09-23T11:59:51.086Z,97994.91
2022-09-23T12:04:17.847Z,97980.50
2022-09-23T12:08:26.666Z,97980.34
2022-09-23T12:12:49.170Z,97976.50
2022-09-23T12:17:19.035Z,97982.53
2022-09-23T12:21:51.693Z,97979.94
2022-09-23T12:25:58.617Z,97976.38
2022-09-23T12:30:12.594Z,97969.69
2022-09-23T12:34:20.877Z,97970.75
2022-09-23T12:38:31.654Z,97965.97
2022-09-23T12:42:33.814Z,97967.81
2022-09-23T12:46:36.059Z,97965.25
2022-09-23T12:51:00.367Z,97952.19
2022-09-23T12:55:22.004Z,97950.50
2022-09-23T12:59:32.918Z,97941.47
2022-09-23T13:03:53.715Z,97943.47
2022-09-23T13:08:02.429Z,97949.22
2022-09-23T13:12:08.385Z,97951.44
2022-09-23T13:16:14.107Z,97944.53
2022-09-23T13:20:19.101Z,97950.28
2022-09-23T13:24:31.060Z,97942.97
2022-09-23T13:28:54.734Z,97930.63
2022-09-23T13:33:12.731Z,97930.94
2022-09-23T13:37:22.681Z,97907.03
2022-09-23T13:41:28.615Z,97904.25
2022-09-23T13:45:32.350Z,97904.25
2022-09-23T13:49:36.250Z,97906.19
2022-09-23T13:53:38.769Z,97903.19
2022-09-23T13:57:41.284Z,97901.50
2022-09-23T14:01:43.306Z,97893.28
2022-09-23T14:05:46.270Z,97893.41
2022-09-23T14:09:50.902Z,97881.44
2022-09-23T14:13:54.937Z,97877.56
2022-09-23T14:18:06.204Z,97868.75
2022-09-23T14:22:23.407Z,97863.53
2022-09-23T14:26:26.208Z,97862.00
2022-09-23T14:30:28.815Z,97861.16
2022-09-23T14:34:51.939Z,97864.19
2022-09-23T14:39:04.903Z,97862.13
2022-09-23T14:43:23.114Z,97857.78
2022-09-23T14:47:25.448Z,97856.75
2022-09-23T14:51:35.039Z,97859.28
2022-09-23T14:55:37.205Z,97852.63
2022-09-23T14:59:51.168Z,97855.28
2022-09-23T15:03:55.609Z,97855.41
2022-09-23T15:08:01.358Z,97856.25
2022-09-23T15:12:12.177Z,97855.16
2022-09-23T15:16:15.899Z,97843.00
2022-09-23T15:20:19.754Z,97839.34
2022-09-23T15:24:35.537Z,97848.97
2022-09-23T15:28:38.026Z,97846.91
2022-09-23T15:32:40.545Z,97844.22
2022-09-23T15:36:42.665Z,97846.84
2022-09-23T15:40:44.939Z,97841.72
2022-09-23T15:44:47.013Z,97847.78
2022-09-23T15:49:03.392Z,97837.25
2022-09-23T15:53:06.696Z,97834.41
2022-09-23T15:57:08.699Z,97832.69
2022-09-23T16:01:24.041Z,97829.84
2022-09-23T16:05:36.753Z,97821.47
2022-09-23T16:09:38.829Z,97827.97
2022-09-23T16:13:40.793Z,97821.19
2022-09-23T16:17:44.178Z,97821.13
2022-09-23T16:21:46.303Z,97826.25
2022-09-23T16:25:48.378Z,97825.41
2022-09-23T16:29:50.371Z,97827.09
2022-09-23T16:33:53.444Z,97825.09
2022-09-23T16:37:55.828Z,97815.22
2022-09-23T16:41:58.513Z,97823.00
2022-09-23T16:46:00.987Z,97824.75
2022-09-23T16:50:03.191Z,97829.94
2022-09-23T16:54:11.049Z,97830.13
2022-09-23T16:58:13.070Z,97834.47
2022-09-23T17:02:33.897Z,97848.25
2022-09-23T17:06:42.031Z,97846.00
2022-09-23T17:10:45.781Z,97841.31
2022-09-23T17:14:47.783Z,97840.91
2022-09-23T17:18:49.841Z,97831.56
2022-09-23T17:22:51.846Z,97833.66
2022-09-23T17:26:53.921Z,97841.13
2022-09-23T17:31:00.822Z,97837.69
2022-09-23T17:35:04.593Z,97829.16
2022-09-23T17:39:07.011Z,97813.81
2022-09-23T17:43:09.363Z,97827.94
2022-09-23T17:47:11.505Z,97842.44
2022-09-23T17:51:16.081Z,97843.22
2022-09-23T17:55:19.118Z,97849.25
2022-09-23T17:59:21.129Z,97852.44
2022-09-23T18:03:24.967Z,97844.38
2022-09-23T18:07:26.967Z,97833.53
2022-09-23T18:11:30.900Z,97833.81
2022-09-23T18:15:39.987Z,97834.75
2022-09-23T18:19:42.469Z,97837.75
2022-09-23T18:23:44.479Z,97827.03
2022-09-23T18:27:46.525Z,97834.63
2022-09-23T18:31:50.990Z,97835.88
2022-09-23T18:35:53.148Z,97841.34
2022-09-23T18:39:55.546Z,97833.00
2022-09-23T18:43:57.630Z,97829.28
2022-09-23T18:48:18.240Z,97839.84
2022-09-23T18:52:20.771Z,97839.91
2022-09-23T18:56:24.600Z,97839.00
2022-09-23T19:00:27.049Z,97841.13
2022-09-23T19:04:29.156Z,97842.81
2022-09-23T19:08:31.211Z,97841.03
2022-09-23T19:12:33.180Z,97838.50
2022-09-23T19:16:36.436Z,97833.22
2022-09-23T19:20:38.402Z,97839.16
2022-09-23T19:24:40.497Z,97837.44
2022-09-23T19:28:50.931Z,97830.22
2022-09-23T19:32:52.960Z,97826.41
2022-09-23T19:36:59.560Z,97827.25
2022-09-23T19:41:09.114Z,97823.50
2022-09-23T19:45:11.167Z,97823.94
2022-09-23T19:49:13.323Z,97820.13
2022-09-23T19:53:15.449Z,97824.63
2022-09-23T19:57:17.892Z,97811.91
2022-09-23T20:01:21.473Z,97811.72
2022-09-23T20:05:25.049Z,97813.13
2022-09-23T20:09:29.016Z,97810.06
2022-09-23T20:13:32.498Z,97807.94
2022-09-23T20:17:35.215Z,97800.88
2022-09-23T20:21:37.949Z,97816.75
2022-09-23T20:25:58.870Z,97809.19
2022-09-23T20:30:02.700Z,97814.88
2022-09-23T20:34:07.080Z,97806.56
2022-09-23T20:38:10.415Z,97799.13
2022-09-23T20:42:16.508Z,97806.66
2022-09-23T20:46:18.650Z,97794.50
2022-09-23T20:50:20.816Z,97793.19
2022-09-23T20:54:22.819Z,97788.28
2022-09-23T20:58:30.333Z,97795.50
2022-09-23T21:02:32.412Z,97794.59
2022-09-23T21:06:36.803Z,97796.22
2022-09-23T21:10:38.957Z,97793.38
2022-09-23T21:14:41.015Z,97779.66
2022-09-23T21:18:43.958Z,97789.13
2022-09-23T21:22:49.880Z,97782.47
2022-09-23T21:26:51.901Z,97782.34
2022-09-23T21:30:58.458Z,97784.47
2022-09-23T21:35:00.552Z,97787.53
2022-09-23T21:39:04.486Z,97780.38
2022-09-23T21:43:06.492Z,97775.53
2022-09-23T21:47:08.564Z,97772.97
2022-09-23T21:51:14.074Z,97784.44
2022-09-23T21:55:16.513Z,97772.97
2022-09-23T21:59:18.583Z,97771.13
2022-09-23T22:03:21.230Z,97771.78
2022-09-23T22:07:23.807Z,97778.88
2022-09-23T22:11:47.396Z,97769.66
2022-09-23T22:15:49.662Z,97771.22
2022-09-23T22:19:51.714Z,97773.59
2022-09-23T22:23:57.060Z,97779.38
2022-09-23T22:28:17.914Z,97785.47
2022-09-23T22:32:39.095Z,97784.44
2022-09-23T22:36:41.170Z,97776.97
2022-09-23T22:40:43.472Z,97773.06
2022-09-23T22:44:45.925Z,97775.53
2022-09-23T22:48:53.221Z,97778.31
2022-09-23T22:52:55.251Z,97782.59
2022-09-23T22:56:57.224Z,97776.25
2022-09-23T23:00:59.303Z,97770.81
2022-09-23T23:05:02.163Z,97770.56
2022-09-23T23:09:18.170Z,97777.66
2022-09-23T23:13:21.554Z,97775.81
2022-09-23T23:17:23.529Z,97773.84
2022-09-23T23:21:25.694Z,97762.25
2022-09-23T23:25:28.129Z,97760.69
2022-09-23T23:29:30.118Z,97757.38
2022-09-23T23:33:32.335Z,97748.66
2022-09-23T23:37:34.354Z,97744.13
2022-09-23T23:41:37.450Z,97748.13
2022-09-23T23:45:39.766Z,97746.00
2022-09-23T23:49:41.796Z,97754.31
2022-09-23T23:53:43.876Z,97743.69
2022-09-23T23:57:45.838Z,97736.84
